createdAt,value
2019-06-27T00:01:39.210Z,17.40
2019-06-27T00:03:40.898Z,17.40
2019-06-27T00:05:42.552Z,17.30
2019-06-27T00:07:44.226Z,17.40
2019-06-27T00:09:45.914Z,17.40
2019-06-27T00:11:47.589Z,17.30
2019-06-27T00:13:49.266Z,17.40
2019-06-27T00:15:50.947Z,17.40
2019-06-27T00:17:52.712Z,17.50
2019-06-27T00:19:54.730Z,17.30
2019-06-27T00:21:56.397Z,17.40
2019-06-27T00:23:58.398Z,17.40
2019-06-27T00:26:00.065Z,17.40
2019-06-27T00:28:01.759Z,17.30
2019-06-27T00:30:03.698Z,17.40
2019-06-27T00:32:05.353Z,17.40
2019-06-27T00:34:07.021Z,17.40
2019-06-27T00:36:08.698Z,17.40
2019-06-27T00:38:10.372Z,17.30
2019-06-27T00:40:12.050Z,17.30
2019-06-27T00:42:13.721Z,17.10
2019-06-27T00:44:15.402Z,17.10
2019-06-27T00:46:17.072Z,17.20
2019-06-27T00:48:19.101Z,17.20
2019-06-27T00:50:20.861Z,17.00
2019-06-27T00:52:22.531Z,16.80
2019-06-27T00:54:24.214Z,16.90
2019-06-27T00:56:25.882Z,16.80
2019-06-27T00:58:27.553Z,16.90
2019-06-27T01:00:29.234Z,16.90
2019-06-27T01:02:30.911Z,17.00
2019-06-27T01:04:32.924Z,17.00
2019-06-27T01:06:34.680Z,17.00
2019-06-27T01:08:36.347Z,17.00
2019-06-27T01:10:38.030Z,17.00
2019-06-27T01:12:39.696Z,17.00
2019-06-27T01:14:41.373Z,17.00
2019-06-27T01:16:43.041Z,17.00
2019-06-27T01:18:44.737Z,17.10
2019-06-27T01:20:46.413Z,17.10
2019-06-27T01:22:48.084Z,17.00
2019-06-27T01:24:49.769Z,17.00
2019-06-27T01:26:51.434Z,17.00
2019-06-27T01:28:53.106Z,17.00
2019-06-27T01:30:54.786Z,17.10
2019-06-27T01:32:56.456Z,17.10
2019-06-27T01:34:58.133Z,17.00
2019-06-27T01:36:59.801Z,16.80
2019-06-27T01:39:01.536Z,16.90
2019-06-27T01:41:03.236Z,16.80
2019-06-27T01:43:04.922Z,16.80
2019-06-27T01:45:15.229Z,16.80
2019-06-27T01:47:17.233Z,16.80
2019-06-27T01:49:18.899Z,16.80
2019-06-27T01:51:20.943Z,16.70
2019-06-27T01:53:22.609Z,16.70
2019-06-27T01:55:24.294Z,16.60
2019-06-27T01:57:25.965Z,16.70
2019-06-27T01:59:27.631Z,16.60
2019-06-27T02:01:29.316Z,16.70
2019-06-27T02:03:30.987Z,16.70
2019-06-27T02:05:32.913Z,16.60
2019-06-27T02:07:34.580Z,16.40
2019-06-27T02:09:36.529Z,16.40
2019-06-27T02:11:38.218Z,16.40
2019-06-27T02:13:40.485Z,16.40
2019-06-27T02:15:42.262Z,16.20
2019-06-27T02:17:43.988Z,16.20
2019-06-27T02:19:45.714Z,16.10
2019-06-27T02:21:47.395Z,16.10
2019-06-27T02:23:49.053Z,15.90
2019-06-27T02:25:50.734Z,15.90
2019-06-27T02:28:03.078Z,15.80
2019-06-27T02:29:55.986Z,15.80
2019-06-27T02:31:57.661Z,15.70
2019-06-27T02:33:59.336Z,15.80
2019-06-27T02:36:01.114Z,15.80
2019-06-27T02:38:02.791Z,15.70
2019-06-27T02:40:04.577Z,15.70
2019-06-27T02:42:06.233Z,15.80
2019-06-27T02:44:07.911Z,15.70
2019-06-27T02:46:09.587Z,15.80
2019-06-27T02:48:11.361Z,15.60
2019-06-27T02:50:13.135Z,15.50
2019-06-27T02:52:14.850Z,15.50
2019-06-27T02:54:16.607Z,15.40
2019-06-27T02:56:18.273Z,15.40
2019-06-27T02:58:31.347Z,15.40
2019-06-27T03:00:23.518Z,15.40
2019-06-27T03:02:25.182Z,15.40
2019-06-27T03:04:26.841Z,15.30
2019-06-27T03:06:28.514Z,15.20
2019-06-27T03:08:30.282Z,15.20
2019-06-27T03:10:32.107Z,15.10
2019-06-27T03:12:34.082Z,15.10
2019-06-27T03:14:35.856Z,15.10
2019-06-27T03:16:37.540Z,15.10
2019-06-27T03:18:39.225Z,15.00
2019-06-27T03:20:41.002Z,15.00
2019-06-27T03:22:42.966Z,15.10
2019-06-27T03:24:44.632Z,15.10
2019-06-27T03:26:46.316Z,15.20
2019-06-27T03:28:53.101Z,15.20
2019-06-27T03:30:51.608Z,15.20
2019-06-27T03:32:53.350Z,15.30
2019-06-27T03:34:55.031Z,15.40
2019-06-27T03:36:57.286Z,15.40
2019-06-27T03:38:58.959Z,15.40
2019-06-27T03:41:00.649Z,15.30
2019-06-27T03:43:02.345Z,15.40
2019-06-27T03:45:04.196Z,15.40
2019-06-27T03:47:05.939Z,15.40
2019-06-27T03:49:07.609Z,15.40
2019-06-27T03:51:09.625Z,15.30
2019-06-27T03:53:11.298Z,15.40
2019-06-27T03:55:13.322Z,15.40
2019-06-27T03:57:14.998Z,15.40
2019-06-27T03:59:19.218Z,15.50
2019-06-27T04:01:21.676Z,15.50
2019-06-27T04:03:24.798Z,15.60
2019-06-27T04:05:27.518Z,15.50
2019-06-27T04:07:29.598Z,15.60
2019-06-27T04:09:31.267Z,15.50
2019-06-27T04:11:32.981Z,15.50
2019-06-27T04:13:34.661Z,15.60
2019-06-27T04:15:36.424Z,15.50
2019-06-27T04:17:38.096Z,15.60
2019-06-27T04:19:39.789Z,15.60
2019-06-27T04:21:41.570Z,15.50
2019-06-27T04:23:43.377Z,15.60
2019-06-27T04:25:45.059Z,15.60
2019-06-27T04:27:47.448Z,15.60
2019-06-27T04:29:49.131Z,15.70
2019-06-27T04:31:50.820Z,15.80
2019-06-27T04:33:52.827Z,15.80
2019-06-27T04:35:54.788Z,15.80
2019-06-27T04:37:56.462Z,15.90
2019-06-27T04:39:58.130Z,15.90
2019-06-27T04:41:59.811Z,15.80
2019-06-27T04:44:01.772Z,15.80
2019-06-27T04:46:03.522Z,15.80
2019-06-27T04:48:05.203Z,15.90
2019-06-27T04:50:06.874Z,15.80
2019-06-27T04:52:08.554Z,15.70
2019-06-27T04:54:10.517Z,15.80
2019-06-27T04:56:12.186Z,15.80
2019-06-27T04:58:13.873Z,15.80
2019-06-27T05:00:23.438Z,15.80
2019-06-27T05:02:25.120Z,15.80
2019-06-27T05:04:26.794Z,15.90
2019-06-27T05:06:28.465Z,15.80
2019-06-27T05:08:30.138Z,15.90
2019-06-27T05:10:31.805Z,15.70
2019-06-27T05:12:33.500Z,15.80
2019-06-27T05:14:35.429Z,15.70
2019-06-27T05:16:37.112Z,15.70
2019-06-27T05:18:38.894Z,15.70
2019-06-27T05:20:40.831Z,15.70
2019-06-27T05:22:42.509Z,15.50
2019-06-27T05:24:44.177Z,15.60
2019-06-27T05:26:45.851Z,15.60
2019-06-27T05:28:47.530Z,15.50
2019-06-27T05:30:51.568Z,15.60
2019-06-27T05:32:52.805Z,15.60
2019-06-27T05:34:54.561Z,15.70
2019-06-27T05:36:56.243Z,15.80
2019-06-27T05:38:57.920Z,16.00
2019-06-27T05:40:59.589Z,16.10
2019-06-27T05:43:01.272Z,16.10
2019-06-27T05:45:03.109Z,16.20
2019-06-27T05:47:04.876Z,16.30
2019-06-27T05:49:06.581Z,16.40
2019-06-27T05:51:08.237Z,16.60
2019-06-27T05:53:10.005Z,16.70
2019-06-27T05:55:12.051Z,16.70
2019-06-27T05:57:14.014Z,16.70
2019-06-27T05:59:15.702Z,16.80
2019-06-27T06:01:17.453Z,16.90
2019-06-27T06:03:19.140Z,16.90
2019-06-27T06:05:20.810Z,16.90
2019-06-27T06:07:22.484Z,16.90
2019-06-27T06:09:24.161Z,17.00
2019-06-27T06:11:25.829Z,16.90
2019-06-27T06:13:27.649Z,16.80
2019-06-27T06:15:29.326Z,16.90
2019-06-27T06:17:31.098Z,17.00
2019-06-27T06:19:32.803Z,17.10
2019-06-27T06:21:34.528Z,17.00
2019-06-27T06:23:36.515Z,17.10
2019-06-27T06:25:38.181Z,17.20
2019-06-27T06:27:39.863Z,17.30
2019-06-27T06:29:41.518Z,17.20
2019-06-27T06:31:43.181Z,17.20
2019-06-27T06:33:44.867Z,17.30
2019-06-27T06:35:46.629Z,17.40
2019-06-27T06:37:48.373Z,17.30
2019-06-27T06:39:50.285Z,17.30
2019-06-27T06:41:51.956Z,17.40
2019-06-27T06:43:53.638Z,17.50
2019-06-27T06:45:55.313Z,17.40
2019-06-27T06:47:57.272Z,17.40
2019-06-27T06:49:59.009Z,17.40
2019-06-27T06:52:00.965Z,17.50
2019-06-27T06:54:02.670Z,17.60
2019-06-27T06:56:04.436Z,17.60
2019-06-27T06:58:06.120Z,17.50
2019-06-27T07:00:07.808Z,17.60
2019-06-27T07:02:09.742Z,17.70
2019-06-27T07:04:11.514Z,17.70
2019-06-27T07:06:13.193Z,18.10
2019-06-27T07:08:14.877Z,17.80
2019-06-27T07:10:16.660Z,17.80
2019-06-27T07:12:18.419Z,17.80
2019-06-27T07:14:20.197Z,18.00
2019-06-27T07:16:21.866Z,17.90
2019-06-27T07:18:23.797Z,18.10
2019-06-27T07:20:26.763Z,18.40
2019-06-27T07:22:28.447Z,18.90
2019-06-27T07:24:30.449Z,19.50
2019-06-27T07:26:32.289Z,18.90
2019-06-27T07:28:33.974Z,18.90
2019-06-27T07:30:35.652Z,19.00
2019-06-27T07:32:37.696Z,19.50
2019-06-27T07:34:39.629Z,19.70
2019-06-27T07:36:41.565Z,19.30
2019-06-27T07:38:46.917Z,19.80
2019-06-27T07:40:46.838Z,19.80
2019-06-27T07:42:48.816Z,20.20
2019-06-27T07:44:50.506Z,20.30
2019-06-27T07:46:52.251Z,20.40
2019-06-27T07:48:53.933Z,20.20
2019-06-27T07:50:55.593Z,20.50
2019-06-27T07:52:57.290Z,20.00
2019-06-27T07:54:58.966Z,20.30
2019-06-27T07:57:00.633Z,20.20
2019-06-27T07:59:02.313Z,20.50
2019-06-27T08:01:03.977Z,20.30
2019-06-27T08:03:05.650Z,20.40
2019-06-27T08:05:07.429Z,20.10
2019-06-27T08:07:09.514Z,20.50
2019-06-27T08:09:11.193Z,20.80
2019-06-27T08:11:12.989Z,21.10
2019-06-27T08:13:14.657Z,21.20
2019-06-27T08:15:16.343Z,21.60
2019-06-27T08:17:18.022Z,21.70
2019-06-27T08:19:19.717Z,21.70
2019-06-27T08:21:21.389Z,22.00
2019-06-27T08:23:23.082Z,21.80
2019-06-27T08:25:24.757Z,21.30
2019-06-27T08:27:26.713Z,21.30
2019-06-27T08:29:28.658Z,21.70
2019-06-27T08:31:30.326Z,22.20
2019-06-27T08:33:32.008Z,21.80
2019-06-27T08:35:33.792Z,21.50
2019-06-27T08:37:35.552Z,21.90
2019-06-27T08:39:37.232Z,21.90
2019-06-27T08:41:38.890Z,22.00
2019-06-27T08:43:40.839Z,21.50
2019-06-27T08:45:42.517Z,22.00
2019-06-27T08:47:44.189Z,22.20
2019-06-27T08:49:45.868Z,22.40
2019-06-27T08:51:47.545Z,22.60
2019-06-27T08:53:49.212Z,23.00
2019-06-27T08:55:50.893Z,22.80
2019-06-27T08:57:52.563Z,22.90
2019-06-27T08:59:54.534Z,23.30
2019-06-27T09:02:07.824Z,23.20
2019-06-27T09:03:59.797Z,23.40
2019-06-27T09:06:01.552Z,23.30
2019-06-27T09:08:03.265Z,23.40
2019-06-27T09:10:04.957Z,23.50
2019-06-27T09:12:06.669Z,23.80
2019-06-27T09:14:08.345Z,24.10
2019-06-27T09:16:10.014Z,24.00
2019-06-27T09:18:11.710Z,23.90
2019-06-27T09:20:15.190Z,24.10
2019-06-27T09:22:16.861Z,23.80
2019-06-27T09:24:18.842Z,22.60
2019-06-27T09:26:20.593Z,22.70
2019-06-27T09:28:22.268Z,23.40
2019-06-27T09:30:23.933Z,23.80
2019-06-27T09:32:26.417Z,23.80
2019-06-27T09:34:28.307Z,23.90
2019-06-27T09:36:30.646Z,24.40
2019-06-27T09:38:32.301Z,24.20
2019-06-27T09:40:33.978Z,24.50
2019-06-27T09:42:35.659Z,24.40
2019-06-27T09:44:37.425Z,24.70
2019-06-27T09:46:39.089Z,24.10
2019-06-27T09:48:40.773Z,24.50
2019-06-27T09:50:43.166Z,24.30
2019-06-27T09:52:44.834Z,24.30
2019-06-27T09:54:46.509Z,24.90
2019-06-27T09:56:48.169Z,24.90
2019-06-27T09:58:49.838Z,24.90
2019-06-27T10:00:51.513Z,25.20
2019-06-27T10:02:53.164Z,25.30
2019-06-27T10:04:54.837Z,25.40
2019-06-27T10:06:56.497Z,25.30
2019-06-27T10:08:58.510Z,25.30
2019-06-27T10:11:00.187Z,25.50
2019-06-27T10:13:01.866Z,25.60
2019-06-27T10:15:04.012Z,25.70
2019-06-27T10:17:05.665Z,26.20
2019-06-27T10:19:07.693Z,25.40
2019-06-27T10:21:09.365Z,25.40
2019-06-27T10:23:11.033Z,25.60
2019-06-27T10:25:12.717Z,26.00
2019-06-27T10:27:14.381Z,25.10
2019-06-27T10:29:16.050Z,25.30
2019-06-27T10:31:17.812Z,25.40
2019-06-27T10:33:19.473Z,24.90
2019-06-27T10:35:21.148Z,25.50
2019-06-27T10:37:22.974Z,25.30
2019-06-27T10:39:24.707Z,25.40
2019-06-27T10:41:26.598Z,25.70
2019-06-27T10:43:28.493Z,25.80
2019-06-27T10:45:30.164Z,25.90
2019-06-27T10:47:31.826Z,25.80
2019-06-27T10:49:33.502Z,25.70
2019-06-27T10:51:35.645Z,26.00
2019-06-27T10:53:37.428Z,26.20
2019-06-27T10:55:39.261Z,26.00
2019-06-27T10:57:40.921Z,25.70
2019-06-27T10:59:42.590Z,25.70
2019-06-27T11:01:44.261Z,25.90
2019-06-27T11:03:45.931Z,25.50
2019-06-27T11:05:47.697Z,25.80
2019-06-27T11:07:49.364Z,26.20
2019-06-27T11:09:51.030Z,26.10
2019-06-27T11:11:52.814Z,26.10
2019-06-27T11:13:58.950Z,26.30
2019-06-27T11:15:58.055Z,26.20
2019-06-27T11:17:59.738Z,26.60
2019-06-27T11:20:01.506Z,26.20
2019-06-27T11:22:03.188Z,26.90
2019-06-27T11:24:04.861Z,26.50
2019-06-27T11:26:09.343Z,26.50
2019-06-27T11:28:10.414Z,26.40
2019-06-27T11:30:12.435Z,26.40
2019-06-27T11:32:14.197Z,26.40
2019-06-27T11:34:19.086Z,26.20
2019-06-27T11:36:19.486Z,26.10
2019-06-27T11:38:23.605Z,26.30
2019-06-27T11:40:25.367Z,26.50
2019-06-27T11:42:29.742Z,26.40
2019-06-27T11:44:30.766Z,26.40
2019-06-27T11:46:32.446Z,26.20
2019-06-27T11:48:34.412Z,26.10
2019-06-27T11:50:36.102Z,26.60
2019-06-27T11:52:38.078Z,26.70
2019-06-27T11:54:39.742Z,26.70
2019-06-27T11:56:41.424Z,26.50
2019-06-27T11:58:43.337Z,25.90
2019-06-27T12:00:45.147Z,25.40
2019-06-27T12:02:46.913Z,26.20
2019-06-27T12:04:48.579Z,26.10
2019-06-27T12:06:50.428Z,25.40
2019-06-27T12:08:52.083Z,25.60
2019-06-27T12:10:54.014Z,25.60
2019-06-27T12:12:55.692Z,25.40
2019-06-27T12:14:57.358Z,26.00
2019-06-27T12:16:59.029Z,26.40
2019-06-27T12:19:03.597Z,25.70
2019-06-27T12:21:06.328Z,25.70
2019-06-27T12:23:08.586Z,25.90
2019-06-27T12:25:10.259Z,26.20
2019-06-27T12:27:12.236Z,26.30
2019-06-27T12:29:14.001Z,26.50
2019-06-27T12:31:20.414Z,26.30
2019-06-27T12:33:19.572Z,26.30
2019-06-27T12:35:21.339Z,26.50
2019-06-27T12:37:23.072Z,26.50
2019-06-27T12:39:24.778Z,26.40
2019-06-27T12:41:26.877Z,26.30
2019-06-27T12:43:28.825Z,26.00
2019-06-27T12:45:30.494Z,26.30
2019-06-27T12:47:32.170Z,26.60
2019-06-27T12:49:56.579Z,26.60
2019-06-27T12:51:37.417Z,26.50
2019-06-27T12:53:39.075Z,26.70
2019-06-27T12:55:40.747Z,26.60
2019-06-27T12:57:42.427Z,26.70
2019-06-27T12:59:44.091Z,26.10
2019-06-27T13:01:45.761Z,26.80
2019-06-27T13:03:47.431Z,26.90
2019-06-27T13:05:49.085Z,26.90
2019-06-27T13:07:50.757Z,26.30
2019-06-27T13:09:52.426Z,26.00
2019-06-27T13:11:54.101Z,25.50
2019-06-27T13:13:55.771Z,26.00
2019-06-27T13:15:57.442Z,26.00
2019-06-27T13:17:59.140Z,26.10
2019-06-27T13:20:00.797Z,25.20
2019-06-27T13:22:02.495Z,25.40
2019-06-27T13:24:04.166Z,26.20
2019-06-27T13:26:05.835Z,26.10
2019-06-27T13:28:07.552Z,26.30
2019-06-27T13:30:09.381Z,26.60
2019-06-27T13:32:11.085Z,26.00
2019-06-27T13:34:12.826Z,26.30
2019-06-27T13:36:14.501Z,25.70
2019-06-27T13:38:16.199Z,26.00
2019-06-27T13:40:18.577Z,26.30
2019-06-27T13:42:20.245Z,26.40
2019-06-27T13:44:21.925Z,26.30
2019-06-27T13:46:23.937Z,26.20
2019-06-27T13:48:25.614Z,26.00
2019-06-27T13:50:27.260Z,25.90
2019-06-27T13:52:29.277Z,26.30
2019-06-27T13:54:30.945Z,26.40
2019-06-27T13:56:33.130Z,26.00
2019-06-27T13:58:34.893Z,26.20
2019-06-27T14:00:41.797Z,25.90
2019-06-27T14:02:43.558Z,25.70
2019-06-27T14:04:56.582Z,25.90
2019-06-27T14:06:48.850Z,26.10
2019-06-27T14:08:50.514Z,26.10
2019-06-27T14:10:52.181Z,26.10
2019-06-27T14:12:53.849Z,26.00
2019-06-27T14:15:00.182Z,25.50
2019-06-27T14:16:59.857Z,25.60
2019-06-27T14:19:01.638Z,25.50
2019-06-27T14:21:03.341Z,25.40
2019-06-27T14:23:05.063Z,25.70
2019-06-27T14:25:07.025Z,25.70
2019-06-27T14:27:08.973Z,25.70
2019-06-27T14:29:10.924Z,25.40
2019-06-27T14:31:12.589Z,25.40
2019-06-27T14:33:14.261Z,25.50
2019-06-27T14:35:16.587Z,25.00
2019-06-27T14:37:18.398Z,25.10
2019-06-27T14:39:20.079Z,25.30
2019-06-27T14:41:21.984Z,25.30
2019-06-27T14:43:23.661Z,25.40
2019-06-27T14:45:25.325Z,24.80
2019-06-27T14:47:27.034Z,24.90
2019-06-27T14:49:28.810Z,24.90
2019-06-27T14:51:30.481Z,24.90
2019-06-27T14:53:32.295Z,24.90
2019-06-27T14:55:33.963Z,24.90
2019-06-27T14:57:35.636Z,24.90
2019-06-27T14:59:37.303Z,24.70
2019-06-27T15:01:38.973Z,24.30
2019-06-27T15:03:40.655Z,24.40
2019-06-27T15:05:42.325Z,24.40
2019-06-27T15:07:44.091Z,24.60
2019-06-27T15:09:45.766Z,24.70
2019-06-27T15:11:47.433Z,24.60
2019-06-27T15:13:49.106Z,24.60
2019-06-27T15:15:50.773Z,24.70
2019-06-27T15:17:52.812Z,24.50
2019-06-27T15:19:54.545Z,24.70
2019-06-27T15:21:56.271Z,24.50
2019-06-27T15:23:57.945Z,24.50
2019-06-27T15:25:59.703Z,23.90
2019-06-27T15:28:01.385Z,23.80
2019-06-27T15:30:03.318Z,23.80
2019-06-27T15:32:05.026Z,24.10
2019-06-27T15:34:07.053Z,23.80
2019-06-27T15:36:08.726Z,23.80
2019-06-27T15:38:10.393Z,23.70
2019-06-27T15:40:12.348Z,23.60
2019-06-27T15:42:14.030Z,23.60
2019-06-27T15:44:15.747Z,23.80
2019-06-27T15:46:17.495Z,23.70
2019-06-27T15:48:19.176Z,23.60
2019-06-27T15:50:21.069Z,23.30
2019-06-27T15:52:22.738Z,23.50
2019-06-27T15:54:24.476Z,23.40
2019-06-27T15:56:26.130Z,23.50
2019-06-27T15:58:27.813Z,23.50
2019-06-27T16:00:29.471Z,23.40
2019-06-27T16:02:31.434Z,23.50
2019-06-27T16:04:34.618Z,23.50
2019-06-27T16:06:36.585Z,23.60
2019-06-27T16:08:38.514Z,23.60
2019-06-27T16:10:40.198Z,23.50
2019-06-27T16:12:41.861Z,23.60
2019-06-27T16:14:43.881Z,23.50
2019-06-27T16:16:45.846Z,23.50
2019-06-27T16:18:47.570Z,23.20
2019-06-27T16:20:49.385Z,23.20
2019-06-27T16:22:51.057Z,23.20
2019-06-27T16:24:52.769Z,23.20
2019-06-27T16:26:54.427Z,23.00
2019-06-27T16:28:56.365Z,23.20
2019-06-27T16:30:58.023Z,23.20
2019-06-27T16:33:00.485Z,23.00
2019-06-27T16:35:02.567Z,22.30
2019-06-27T16:37:04.817Z,21.80
2019-06-27T16:39:06.500Z,21.30
2019-06-27T16:41:08.698Z,21.10
2019-06-27T16:43:10.401Z,20.80
2019-06-27T16:45:12.144Z,20.50
2019-06-27T16:47:13.902Z,20.00
2019-06-27T16:49:15.633Z,20.00
2019-06-27T16:51:20.328Z,19.90
2019-06-27T16:53:20.914Z,19.70
2019-06-27T16:55:22.589Z,19.70
2019-06-27T16:57:24.289Z,19.40
2019-06-27T16:59:26.033Z,19.50
2019-06-27T17:01:27.833Z,19.50
2019-06-27T17:03:29.573Z,19.40
2019-06-27T17:05:31.533Z,19.40
2019-06-27T17:07:33.486Z,19.30
2019-06-27T17:09:35.171Z,19.20
2019-06-27T17:11:36.846Z,19.10
2019-06-27T17:13:38.520Z,19.10
2019-06-27T17:15:40.226Z,19.20
2019-06-27T17:17:41.897Z,19.20
2019-06-27T17:19:43.830Z,19.20
2019-06-27T17:21:45.806Z,19.20
2019-06-27T17:23:47.478Z,19.10
2019-06-27T17:25:49.170Z,19.30
2019-06-27T17:27:51.218Z,19.40
2019-06-27T17:29:52.919Z,19.40
2019-06-27T17:31:54.581Z,19.50
2019-06-27T17:33:56.324Z,19.60
2019-06-27T17:35:58.014Z,19.60
2019-06-27T17:37:59.935Z,19.60
2019-06-27T17:40:02.012Z,19.60
2019-06-27T17:42:03.790Z,19.60
2019-06-27T17:44:05.783Z,19.60
2019-06-27T17:46:08.049Z,19.60
2019-06-27T17:48:09.738Z,19.60
2019-06-27T17:50:11.719Z,19.40
2019-06-27T17:52:13.371Z,19.30
2019-06-27T17:54:17.440Z,19.30
2019-06-27T17:56:19.172Z,19.30
2019-06-27T17:58:20.901Z,19.30
2019-06-27T18:00:23.003Z,19.30
2019-06-27T18:02:25.049Z,19.30
2019-06-27T18:04:26.733Z,19.30
2019-06-27T18:06:28.437Z,19.20
2019-06-27T18:08:30.202Z,19.20
2019-06-27T18:10:31.888Z,19.10
2019-06-27T18:12:33.582Z,19.10
2019-06-27T18:14:35.292Z,19.00
2019-06-27T18:16:36.970Z,18.90
2019-06-27T18:18:38.627Z,18.90
2019-06-27T18:20:40.329Z,18.80
2019-06-27T18:22:42.293Z,18.70
2019-06-27T18:24:43.999Z,18.70
2019-06-27T18:26:45.753Z,18.70
2019-06-27T18:28:47.421Z,18.50
2019-06-27T18:30:49.325Z,18.60
2019-06-27T18:32:51.047Z,18.50
2019-06-27T18:34:53.017Z,18.40
2019-06-27T18:36:54.714Z,18.50
2019-06-27T18:38:56.391Z,18.30
2019-06-27T18:40:58.068Z,18.30
2019-06-27T18:43:00.044Z,18.20
2019-06-27T18:45:02.097Z,18.20
2019-06-27T18:47:03.846Z,18.20
2019-06-27T18:49:05.508Z,18.20
2019-06-27T18:51:07.181Z,18.20
2019-06-27T18:53:09.026Z,18.20
2019-06-27T18:55:10.706Z,18.10
2019-06-27T18:57:12.376Z,18.10
2019-06-27T18:59:14.377Z,18.10
2019-06-27T19:01:16.064Z,17.90
2019-06-27T19:03:17.905Z,17.90
2019-06-27T19:05:19.590Z,17.90
2019-06-27T19:07:21.288Z,17.80
2019-06-27T19:09:22.962Z,17.70
2019-06-27T19:11:24.650Z,17.70
2019-06-27T19:13:28.146Z,17.60
2019-06-27T19:15:29.900Z,17.60
2019-06-27T19:17:31.578Z,17.60
2019-06-27T19:19:35.177Z,17.60
2019-06-27T19:21:44.086Z,17.50
2019-06-27T19:24:03.643Z,17.50
2019-06-27T19:26:06.368Z,17.50
2019-06-27T19:28:08.173Z,17.30
2019-06-27T19:30:10.106Z,17.30
2019-06-27T19:32:11.788Z,17.20
2019-06-27T19:34:13.553Z,17.30
2019-06-27T19:36:15.242Z,17.10
2019-06-27T19:38:16.925Z,17.10
2019-06-27T19:40:18.593Z,17.10
2019-06-27T19:42:20.459Z,17.00
2019-06-27T19:44:22.220Z,17.00
2019-06-27T19:46:23.901Z,16.80
2019-06-27T19:48:25.570Z,16.80
2019-06-27T19:50:27.241Z,16.70
2019-06-27T19:52:28.917Z,16.70
2019-06-27T19:54:30.941Z,16.60
2019-06-27T19:56:32.618Z,16.50
2019-06-27T19:58:34.541Z,16.50
2019-06-27T20:00:36.242Z,16.50
2019-06-27T20:02:38.306Z,16.50
2019-06-27T20:04:40.314Z,16.40
2019-06-27T20:06:41.996Z,16.50
2019-06-27T20:08:43.667Z,16.40
2019-06-27T20:10:45.329Z,16.40
2019-06-27T20:12:46.998Z,16.30
2019-06-27T20:14:48.665Z,16.30
2019-06-27T20:16:50.341Z,16.30
2019-06-27T20:18:52.057Z,16.20
2019-06-27T20:20:53.761Z,16.20
2019-06-27T20:22:55.425Z,16.30
2019-06-27T20:24:57.100Z,16.30
2019-06-27T20:26:58.829Z,16.20
2019-06-27T20:29:00.749Z,16.10
2019-06-27T20:31:02.724Z,16.10
2019-06-27T20:33:04.431Z,16.00
2019-06-27T20:35:07.055Z,16.10
2019-06-27T20:37:08.725Z,16.00
2019-06-27T20:39:10.394Z,16.00
2019-06-27T20:41:12.089Z,15.90
2019-06-27T20:43:13.765Z,15.80
2019-06-27T20:45:15.632Z,15.90
2019-06-27T20:47:17.397Z,15.80
2019-06-27T20:49:19.322Z,15.90
2019-06-27T20:51:21.006Z,15.80
2019-06-27T20:53:22.696Z,15.80
2019-06-27T20:55:24.365Z,15.90
2019-06-27T20:57:26.045Z,15.90
2019-06-27T20:59:27.724Z,15.90
2019-06-27T21:01:31.671Z,15.90
2019-06-27T21:03:33.064Z,16.00
2019-06-27T21:05:34.727Z,15.90
2019-06-27T21:07:36.404Z,16.00
2019-06-27T21:09:38.088Z,16.00
2019-06-27T21:11:40.131Z,16.00
2019-06-27T21:13:41.898Z,16.00
2019-06-27T21:15:43.565Z,16.00
2019-06-27T21:17:45.407Z,16.00
2019-06-27T21:19:47.072Z,16.00
2019-06-27T21:21:48.753Z,16.00
2019-06-27T21:23:50.427Z,16.00
2019-06-27T21:25:52.443Z,16.10
2019-06-27T21:27:54.164Z,16.00
2019-06-27T21:29:55.833Z,16.00
2019-06-27T21:31:57.505Z,16.00
2019-06-27T21:33:59.261Z,15.90
2019-06-27T21:36:01.065Z,16.00
2019-06-27T21:38:02.835Z,16.00
2019-06-27T21:40:04.521Z,16.00
2019-06-27T21:42:06.199Z,16.00
2019-06-27T21:44:07.866Z,16.00
2019-06-27T21:46:09.546Z,16.00
2019-06-27T21:48:11.258Z,15.90
2019-06-27T21:50:12.923Z,16.00
2019-06-27T21:52:14.607Z,16.00
2019-06-27T21:54:16.589Z,16.00
2019-06-27T21:56:18.252Z,16.00
2019-06-27T21:58:19.938Z,16.00
2019-06-27T22:00:21.708Z,16.00
2019-06-27T22:02:23.390Z,16.00
2019-06-27T22:04:25.065Z,16.00
2019-06-27T22:06:27.011Z,16.00
2019-06-27T22:08:28.694Z,16.00
2019-06-27T22:10:30.367Z,16.00
2019-06-27T22:12:34.358Z,15.90
2019-06-27T22:14:35.710Z,15.90
2019-06-27T22:16:37.369Z,15.80
2019-06-27T22:18:39.054Z,15.90
2019-06-27T22:20:40.734Z,15.90
2019-06-27T22:22:42.405Z,15.90
2019-06-27T22:24:44.078Z,15.90
2019-06-27T22:26:46.061Z,15.90
2019-06-27T22:28:47.741Z,15.90
2019-06-27T22:30:49.417Z,16.00
2019-06-27T22:32:51.134Z,15.90
2019-06-27T22:34:52.865Z,15.90
2019-06-27T22:37:00.314Z,16.00
2019-06-27T22:39:20.389Z,15.90
2019-06-27T22:41:40.509Z,16.00
2019-06-27T22:44:00.850Z,16.00
2019-06-27T22:46:21.036Z,15.80
2019-06-27T22:48:22.393Z,15.90
2019-06-27T22:50:38.326Z,15.80
2019-06-27T22:53:04.154Z,15.80
2019-06-27T22:55:07.057Z,15.80
2019-06-27T22:57:08.729Z,15.80
2019-06-27T22:59:10.407Z,15.80
2019-06-27T23:01:12.069Z,15.80
2019-06-27T23:03:14.081Z,15.70
2019-06-27T23:05:15.749Z,15.70
2019-06-27T23:07:17.420Z,15.70
2019-06-27T23:09:19.101Z,15.70
2019-06-27T23:11:20.769Z,15.70
2019-06-27T23:13:22.502Z,15.60
2019-06-27T23:15:24.173Z,15.60
2019-06-27T23:17:25.840Z,15.70
2019-06-27T23:19:27.537Z,15.70
2019-06-27T23:21:29.206Z,15.60
2019-06-27T23:23:30.877Z,15.60
2019-06-27T23:25:32.550Z,15.50
2019-06-27T23:27:34.330Z,15.50
2019-06-27T23:29:36.014Z,15.60
2019-06-27T23:31:37.669Z,15.60
2019-06-27T23:33:39.350Z,15.60
2019-06-27T23:35:41.336Z,15.50
2019-06-27T23:37:43.019Z,15.50
2019-06-27T23:39:44.689Z,15.60
2019-06-27T23:41:46.352Z,15.50
2019-06-27T23:43:48.064Z,15.50
2019-06-27T23:45:49.821Z,15.60
2019-06-27T23:47:51.496Z,15.60
2019-06-27T23:49:53.512Z,15.60
2019-06-27T23:51:55.191Z,15.60
2019-06-27T23:53:56.862Z,15.60
2019-06-27T23:55:58.531Z,15.50
2019-06-27T23:58:00.210Z,15.50
